createdAt,value
2022-08-27T00:01:48.684Z,19.50
2022-08-27T00:04:16.339Z,19.56
2022-08-27T00:06:44.032Z,19.44
2022-08-27T00:09:14.085Z,19.56
2022-08-27T00:11:41.525Z,19.44
2022-08-27T00:14:09.437Z,19.31
2022-08-27T00:16:36.798Z,19.38
2022-08-27T00:19:04.214Z,19.38
2022-08-27T00:21:33.292Z,19.31
2022-08-27T00:24:01.618Z,19.25
2022-08-27T00:26:29.315Z,19.06
2022-08-27T00:28:58.068Z,19.13
2022-08-27T00:31:27.481Z,18.94
2022-08-27T00:33:55.882Z,18.88
2022-08-27T00:36:24.108Z,19.00
2022-08-27T00:38:52.778Z,18.94
2022-08-27T00:41:22.400Z,19.06
2022-08-27T00:43:54.498Z,19.13
2022-08-27T00:46:29.649Z,19.19
2022-08-27T00:49:04.371Z,19.25
2022-08-27T00:51:32.647Z,19.25
2022-08-27T00:54:01.005Z,19.13
2022-08-27T00:56:34.568Z,19.06
2022-08-27T00:59:03.931Z,19.13
2022-08-27T01:01:35.953Z,19.00
2022-08-27T01:04:06.137Z,19.06
2022-08-27T01:06:37.120Z,19.00
2022-08-27T01:09:14.854Z,18.94
2022-08-27T01:11:42.273Z,18.88
2022-08-27T01:14:09.993Z,19.00
2022-08-27T01:16:43.956Z,19.00
2022-08-27T01:19:29.333Z,19.06
2022-08-27T01:22:32.959Z,19.00
2022-08-27T01:25:08.582Z,18.94
2022-08-27T01:27:36.735Z,18.81
2022-08-27T01:30:06.579Z,18.69
2022-08-27T01:32:36.471Z,18.69
2022-08-27T01:35:08.458Z,18.69
2022-08-27T01:37:37.434Z,18.81
2022-08-27T01:40:06.373Z,18.69
2022-08-27T01:42:42.665Z,18.88
2022-08-27T01:45:27.612Z,18.81
2022-08-27T01:47:55.178Z,18.81
2022-08-27T01:50:29.604Z,18.81
2022-08-27T01:52:57.068Z,18.75
2022-08-27T01:55:27.091Z,18.56
2022-08-27T01:57:55.638Z,18.50
2022-08-27T02:00:35.125Z,18.50
2022-08-27T02:03:03.533Z,18.31
2022-08-27T02:05:31.440Z,18.50
2022-08-27T02:08:08.403Z,18.69
2022-08-27T02:10:39.325Z,18.69
2022-08-27T02:13:08.290Z,18.75
2022-08-27T02:15:40.416Z,18.88
2022-08-27T02:18:08.960Z,18.75
2022-08-27T02:20:36.994Z,18.81
2022-08-27T02:23:05.147Z,18.81
2022-08-27T02:25:33.519Z,18.69
2022-08-27T02:28:01.970Z,18.94
2022-08-27T02:30:32.328Z,18.69
2022-08-27T02:33:04.606Z,18.94
2022-08-27T02:35:40.895Z,18.81
2022-08-27T02:38:08.801Z,18.94
2022-08-27T02:40:37.482Z,18.94
2022-08-27T02:43:05.613Z,18.94
2022-08-27T02:45:32.927Z,18.63
2022-08-27T02:48:03.989Z,18.81
2022-08-27T02:50:31.670Z,18.94
2022-08-27T02:52:59.002Z,18.94
2022-08-27T02:55:26.347Z,18.81
2022-08-27T02:57:53.810Z,19.00
2022-08-27T03:00:23.294Z,19.00
2022-08-27T03:02:52.006Z,19.19
2022-08-27T03:05:20.258Z,19.19
2022-08-27T03:07:48.036Z,19.00
2022-08-27T03:10:19.653Z,19.06
2022-08-27T03:12:47.202Z,19.06
2022-08-27T03:15:18.347Z,19.06
2022-08-27T03:18:04.955Z,19.06
2022-08-27T03:20:33.422Z,19.00
2022-08-27T03:23:01.492Z,18.75
2022-08-27T03:25:29.096Z,18.69
2022-08-27T03:27:56.484Z,18.75
2022-08-27T03:30:24.985Z,18.75
2022-08-27T03:32:52.568Z,18.56
2022-08-27T03:35:21.799Z,18.75
2022-08-27T03:37:50.507Z,18.94
2022-08-27T03:40:19.935Z,18.94
2022-08-27T03:42:47.334Z,18.81
2022-08-27T03:45:15.540Z,18.44
2022-08-27T03:47:43.157Z,18.50
2022-08-27T03:50:11.808Z,18.63
2022-08-27T03:52:39.654Z,18.69
2022-08-27T03:55:09.578Z,18.56
2022-08-27T03:57:37.351Z,18.63
2022-08-27T04:00:11.809Z,18.56
2022-08-27T04:02:40.571Z,18.63
2022-08-27T04:05:13.070Z,18.69
2022-08-27T04:07:42.501Z,18.69
2022-08-27T04:10:12.667Z,18.56
2022-08-27T04:12:44.136Z,18.63
2022-08-27T04:15:13.601Z,18.69
2022-08-27T04:17:41.859Z,18.63
2022-08-27T04:20:34.006Z,18.69
2022-08-27T04:22:58.196Z,18.69
2022-08-27T04:25:25.465Z,18.44
2022-08-27T04:27:57.427Z,18.69
2022-08-27T04:30:24.753Z,18.81
2022-08-27T04:32:52.339Z,18.69
2022-08-27T04:35:19.636Z,18.75
2022-08-27T04:37:47.018Z,18.88
2022-08-27T04:40:14.499Z,18.88
2022-08-27T04:42:42.483Z,18.88
2022-08-27T04:45:10.528Z,18.56
2022-08-27T04:47:38.024Z,18.56
2022-08-27T04:50:06.400Z,18.69
2022-08-27T04:52:35.193Z,18.63
2022-08-27T04:55:09.273Z,18.63
2022-08-27T04:57:38.118Z,18.81
2022-08-27T05:00:07.977Z,18.88
2022-08-27T05:02:35.288Z,18.75
2022-08-27T05:05:02.606Z,19.06
2022-08-27T05:07:30.020Z,19.31
2022-08-27T05:09:57.484Z,19.31
2022-08-27T05:12:26.261Z,19.31
2022-08-27T05:14:55.316Z,19.56
2022-08-27T05:17:22.740Z,19.81
2022-08-27T05:19:50.244Z,19.88
2022-08-27T05:22:18.236Z,19.63
2022-08-27T05:24:50.006Z,19.69
2022-08-27T05:27:17.904Z,19.75
2022-08-27T05:29:45.385Z,19.75
2022-08-27T05:32:13.632Z,20.13
2022-08-27T05:34:41.027Z,20.13
2022-08-27T05:37:08.664Z,20.06
2022-08-27T05:39:35.946Z,20.13
2022-08-27T05:42:03.301Z,20.19
2022-08-27T05:44:40.985Z,20.31
2022-08-27T05:47:10.015Z,20.38
2022-08-27T05:49:38.105Z,20.63
2022-08-27T05:52:10.860Z,20.69
2022-08-27T05:54:42.647Z,20.81
2022-08-27T05:57:10.649Z,20.69
2022-08-27T05:59:57.226Z,20.75
2022-08-27T06:02:26.476Z,20.63
2022-08-27T06:04:54.151Z,20.19
2022-08-27T06:07:27.984Z,20.19
2022-08-27T06:09:55.439Z,20.13
2022-08-27T06:12:28.045Z,20.06
2022-08-27T06:14:56.111Z,20.31
2022-08-27T06:17:23.418Z,20.19
2022-08-27T06:19:50.836Z,20.31
2022-08-27T06:22:56.964Z,20.44
2022-08-27T06:25:24.359Z,20.50
2022-08-27T06:27:51.664Z,20.38
2022-08-27T06:30:19.075Z,20.44
2022-08-27T06:32:46.614Z,20.31
2022-08-27T06:35:13.914Z,20.44
2022-08-27T06:37:41.355Z,20.69
2022-08-27T06:40:10.819Z,20.69
2022-08-27T06:42:38.987Z,20.75
2022-08-27T06:45:08.145Z,21.06
2022-08-27T06:47:35.417Z,21.31
2022-08-27T06:50:03.174Z,21.19
2022-08-27T06:52:30.466Z,20.81
2022-08-27T06:54:58.159Z,20.69
2022-08-27T06:57:25.499Z,20.94
2022-08-27T06:59:52.836Z,21.13
2022-08-27T07:02:20.460Z,21.31
2022-08-27T07:04:47.941Z,21.44
2022-08-27T07:07:15.580Z,21.69
2022-08-27T07:10:01.980Z,21.75
2022-08-27T07:12:31.623Z,21.88
2022-08-27T07:14:58.893Z,22.06
2022-08-27T07:17:26.928Z,22.19
2022-08-27T07:19:54.316Z,22.44
2022-08-27T07:22:21.607Z,22.50
2022-08-27T07:24:48.847Z,22.63
2022-08-27T07:27:16.293Z,22.75
2022-08-27T07:29:43.621Z,22.94
2022-08-27T07:32:11.138Z,23.00
2022-08-27T07:34:38.422Z,23.31
2022-08-27T07:37:06.986Z,23.63
2022-08-27T07:39:34.347Z,23.81
2022-08-27T07:42:20.126Z,23.88
2022-08-27T07:44:47.885Z,23.94
2022-08-27T07:47:15.126Z,23.88
2022-08-27T07:49:42.469Z,23.63
2022-08-27T07:52:10.068Z,23.81
2022-08-27T07:54:37.702Z,23.69
2022-08-27T07:57:05.235Z,23.50
2022-08-27T07:59:32.973Z,23.31
2022-08-27T08:02:00.418Z,23.38
2022-08-27T08:04:28.034Z,23.25
2022-08-27T08:06:56.004Z,23.19
2022-08-27T08:09:25.124Z,23.25
2022-08-27T08:11:53.564Z,23.25
2022-08-27T08:14:21.506Z,23.25
2022-08-27T08:16:49.646Z,23.19
2022-08-27T08:19:17.497Z,23.25
2022-08-27T08:21:44.831Z,23.31
2022-08-27T08:24:12.179Z,23.19
2022-08-27T08:26:41.948Z,23.31
2022-08-27T08:29:09.512Z,23.38
2022-08-27T08:31:42.761Z,23.50
2022-08-27T08:34:11.294Z,23.56
2022-08-27T08:36:42.435Z,23.63
2022-08-27T08:39:13.472Z,23.69
2022-08-27T08:41:59.057Z,23.69
2022-08-27T08:44:43.408Z,23.69
2022-08-27T08:47:31.763Z,23.69
2022-08-27T08:50:26.431Z,23.81
2022-08-27T08:52:59.847Z,23.63
2022-08-27T08:55:39.119Z,23.75
2022-08-27T08:58:35.189Z,23.63
2022-08-27T09:01:07.093Z,23.63
2022-08-27T09:03:40.865Z,23.63
2022-08-27T09:06:16.893Z,23.88
2022-08-27T09:08:45.273Z,23.94
2022-08-27T09:11:21.893Z,23.94
2022-08-27T09:13:56.037Z,24.06
2022-08-27T09:16:23.649Z,24.06
2022-08-27T09:19:00.435Z,24.19
2022-08-27T09:21:42.847Z,24.31
2022-08-27T09:24:24.866Z,24.50
2022-08-27T09:26:52.754Z,24.63
2022-08-27T09:29:27.488Z,24.38
2022-08-27T09:32:00.815Z,24.44
2022-08-27T09:34:42.520Z,24.81
2022-08-27T09:37:21.524Z,25.00
2022-08-27T09:40:22.568Z,24.88
2022-08-27T09:42:54.922Z,24.69
2022-08-27T09:45:27.521Z,24.81
2022-08-27T09:48:14.053Z,24.88
2022-08-27T09:50:53.436Z,24.69
2022-08-27T09:53:44.755Z,24.94
2022-08-27T09:56:40.294Z,24.88
2022-08-27T09:59:22.777Z,24.75
2022-08-27T10:02:04.428Z,24.88
2022-08-27T10:04:51.381Z,24.88
2022-08-27T10:07:36.816Z,25.06
2022-08-27T10:10:43.673Z,25.13
2022-08-27T10:13:25.183Z,25.00
2022-08-27T10:16:11.023Z,25.06
2022-08-27T10:18:53.512Z,25.19
2022-08-27T10:22:03.401Z,25.44
2022-08-27T10:24:44.185Z,25.38
2022-08-27T10:27:26.726Z,25.44
2022-08-27T10:30:02.971Z,25.38
2022-08-27T10:32:39.285Z,25.69
2022-08-27T10:35:54.754Z,25.69
2022-08-27T10:38:40.049Z,25.56
2022-08-27T10:41:34.285Z,25.69
2022-08-27T10:44:24.215Z,25.56
2022-08-27T10:47:05.004Z,25.63
2022-08-27T10:49:52.118Z,25.50
2022-08-27T10:52:55.796Z,25.63
2022-08-27T10:55:33.858Z,25.88
2022-08-27T10:59:03.149Z,26.06
2022-08-27T11:02:14.582Z,26.19
2022-08-27T11:04:52.632Z,26.19
2022-08-27T11:07:33.309Z,26.31
2022-08-27T11:10:04.816Z,26.25
2022-08-27T11:12:42.589Z,26.31
2022-08-27T11:15:32.268Z,26.25
2022-08-27T11:18:19.195Z,26.44
2022-08-27T11:21:10.857Z,26.69
2022-08-27T11:23:47.262Z,26.75
2022-08-27T11:26:14.822Z,26.69
2022-08-27T11:28:58.843Z,26.44
2022-08-27T11:31:43.710Z,26.44
2022-08-27T11:34:35.120Z,26.44
2022-08-27T11:37:04.923Z,26.56
2022-08-27T11:40:04.048Z,26.75
2022-08-27T11:42:42.488Z,26.63
2022-08-27T11:45:34.675Z,26.94
2022-08-27T11:48:37.488Z,27.06
2022-08-27T11:51:12.897Z,27.00
2022-08-27T11:53:57.221Z,26.81
2022-08-27T11:56:45.507Z,26.75
2022-08-27T11:59:27.133Z,26.75
2022-08-27T12:02:00.571Z,26.63
2022-08-27T12:04:39.828Z,26.56
2022-08-27T12:07:17.499Z,26.63
2022-08-27T12:09:56.747Z,26.63
2022-08-27T12:12:48.115Z,26.63
2022-08-27T12:15:34.220Z,26.75
2022-08-27T12:18:36.888Z,26.50
2022-08-27T12:21:40.917Z,26.44
2022-08-27T12:24:44.482Z,26.50
2022-08-27T12:27:28.318Z,26.56
2022-08-27T12:30:34.637Z,26.63
2022-08-27T12:33:36.848Z,26.69
2022-08-27T12:36:17.493Z,26.63
2022-08-27T12:38:59.685Z,26.63
2022-08-27T12:41:44.228Z,26.63
2022-08-27T12:44:33.743Z,26.63
2022-08-27T12:47:16.271Z,26.75
2022-08-27T12:49:55.783Z,26.69
2022-08-27T12:52:42.063Z,26.63
2022-08-27T12:55:12.505Z,26.56
2022-08-27T12:58:31.756Z,26.81
2022-08-27T13:01:43.161Z,26.69
2022-08-27T13:04:24.874Z,26.56
2022-08-27T13:06:52.780Z,26.88
2022-08-27T13:09:33.462Z,26.81
2022-08-27T13:12:04.787Z,26.94
2022-08-27T13:14:41.583Z,26.81
2022-08-27T13:17:19.154Z,26.81
2022-08-27T13:19:59.685Z,26.69
2022-08-27T13:22:32.583Z,26.81
2022-08-27T13:25:00.357Z,26.75
2022-08-27T13:27:33.197Z,26.88
2022-08-27T13:30:08.182Z,26.75
2022-08-27T13:32:38.378Z,26.63
2022-08-27T13:35:07.063Z,26.81
2022-08-27T13:37:36.209Z,26.88
2022-08-27T13:40:05.314Z,26.88
2022-08-27T13:42:33.491Z,26.69
2022-08-27T13:45:07.853Z,26.69
2022-08-27T13:47:46.139Z,26.75
2022-08-27T13:50:25.977Z,26.50
2022-08-27T13:53:25.327Z,26.56
2022-08-27T13:55:54.289Z,26.50
2022-08-27T13:58:31.108Z,26.75
2022-08-27T14:01:09.270Z,26.75
2022-08-27T14:03:50.167Z,26.56
2022-08-27T14:06:53.702Z,26.56
2022-08-27T14:09:28.786Z,26.63
2022-08-27T14:12:05.832Z,26.56
2022-08-27T14:14:41.715Z,26.56
2022-08-27T14:17:27.909Z,26.81
2022-08-27T14:20:05.911Z,26.88
2022-08-27T14:22:36.493Z,26.75
2022-08-27T14:25:04.400Z,26.81
2022-08-27T14:27:32.122Z,26.88
2022-08-27T14:29:59.553Z,26.75
2022-08-27T14:32:26.978Z,26.69
2022-08-27T14:34:54.456Z,26.69
2022-08-27T14:37:21.895Z,26.63
2022-08-27T14:39:49.255Z,26.63
2022-08-27T14:42:17.783Z,26.56
2022-08-27T14:44:45.469Z,26.56
2022-08-27T14:47:16.167Z,26.56
2022-08-27T14:49:46.348Z,26.63
2022-08-27T14:52:17.785Z,26.69
2022-08-27T14:54:45.161Z,26.63
2022-08-27T14:57:13.555Z,26.63
2022-08-27T14:59:41.897Z,26.50
2022-08-27T15:02:14.146Z,26.38
2022-08-27T15:04:42.370Z,26.38
2022-08-27T15:07:14.820Z,26.38
2022-08-27T15:09:42.703Z,26.38
2022-08-27T15:12:16.881Z,26.50
2022-08-27T15:17:49.809Z,26.44
2022-08-27T15:20:20.066Z,26.38
2022-08-27T15:22:52.271Z,26.38
2022-08-27T15:25:21.267Z,26.38
2022-08-27T15:27:49.565Z,26.38
2022-08-27T15:30:27.092Z,26.31
2022-08-27T15:32:55.630Z,26.31
2022-08-27T15:35:27.046Z,26.44
2022-08-27T15:37:57.041Z,26.31
2022-08-27T15:40:26.913Z,26.13
2022-08-27T15:43:06.024Z,26.06
2022-08-27T15:45:35.390Z,26.13
2022-08-27T15:48:03.174Z,26.19
2022-08-27T15:53:37.919Z,25.94
2022-08-27T15:56:11.026Z,26.00
2022-08-27T15:58:41.336Z,25.81
2022-08-27T16:01:17.523Z,25.75
2022-08-27T16:03:47.058Z,25.81
2022-08-27T16:06:20.992Z,25.69
2022-08-27T16:09:01.934Z,25.63
2022-08-27T16:15:08.468Z,25.69
2022-08-27T16:18:01.675Z,25.50
2022-08-27T16:20:33.084Z,25.38
2022-08-27T16:34:56.286Z,25.38
2022-08-27T16:37:29.938Z,25.44
2022-08-27T16:40:03.934Z,25.50
2022-08-27T16:42:36.483Z,25.31
2022-08-27T16:48:01.279Z,25.25
2022-08-27T17:03:52.108Z,24.94
2022-08-27T17:16:48.143Z,24.50
2022-08-27T17:19:19.493Z,24.44
2022-08-27T17:21:49.470Z,24.31
2022-08-27T17:24:20.083Z,24.31
2022-08-27T17:26:49.264Z,24.19
2022-08-27T17:29:19.433Z,24.13
2022-08-27T17:31:54.331Z,24.00
2022-08-27T17:34:25.555Z,23.88
2022-08-27T17:37:19.003Z,24.00
2022-08-27T17:39:48.981Z,23.88
2022-08-27T17:42:18.182Z,23.50
2022-08-27T17:44:48.283Z,23.56
2022-08-27T17:47:21.151Z,23.50
2022-08-27T17:49:49.837Z,23.50
2022-08-27T17:52:23.534Z,23.38
2022-08-27T17:54:58.021Z,23.38
2022-08-27T17:57:40.466Z,23.38
2022-08-27T18:00:13.157Z,23.31
2022-08-27T18:02:47.268Z,23.19
2022-08-27T18:05:19.182Z,23.25
2022-08-27T18:07:48.042Z,23.19
2022-08-27T18:10:23.269Z,23.13
2022-08-27T18:12:55.802Z,23.06
2022-08-27T18:15:30.448Z,23.19
2022-08-27T18:18:00.392Z,23.06
2022-08-27T18:20:31.399Z,22.94
2022-08-27T18:23:00.357Z,23.00
2022-08-27T18:25:35.791Z,22.94
2022-08-27T18:28:13.672Z,22.94
2022-08-27T18:30:44.722Z,22.88
2022-08-27T18:33:14.064Z,22.81
2022-08-27T18:35:44.629Z,22.88
2022-08-27T18:38:13.941Z,22.81
2022-08-27T18:40:49.468Z,22.75
2022-08-27T18:43:21.454Z,22.75
2022-08-27T18:45:49.454Z,22.69
2022-08-27T18:48:24.307Z,22.75
2022-08-27T18:51:02.381Z,22.63
2022-08-27T18:53:34.902Z,22.63
2022-08-27T18:56:06.917Z,22.56
2022-08-27T18:58:35.712Z,22.38
2022-08-27T19:01:11.152Z,22.38
2022-08-27T19:03:48.060Z,22.44
2022-08-27T19:06:23.076Z,22.25
2022-08-27T19:08:55.169Z,22.31
2022-08-27T19:11:26.766Z,22.31
2022-08-27T19:13:58.293Z,22.31
2022-08-27T19:16:49.511Z,22.19
2022-08-27T19:19:22.742Z,22.31
2022-08-27T19:21:58.592Z,22.31
2022-08-27T19:24:31.992Z,22.13
2022-08-27T19:27:05.755Z,22.19
2022-08-27T19:29:35.867Z,22.00
2022-08-27T19:32:04.372Z,22.00
2022-08-27T19:34:34.833Z,22.00
2022-08-27T19:37:05.684Z,22.00
2022-08-27T19:39:39.189Z,22.00
2022-08-27T19:42:07.938Z,21.88
2022-08-27T19:44:37.423Z,21.75
2022-08-27T19:47:11.022Z,21.44
2022-08-27T19:49:40.528Z,21.56
2022-08-27T19:52:09.678Z,21.63
2022-08-27T19:54:56.957Z,21.50
2022-08-27T19:57:26.138Z,21.50
2022-08-27T19:59:54.824Z,21.44
2022-08-27T20:02:23.546Z,21.63
2022-08-27T20:05:16.438Z,21.63
2022-08-27T20:07:40.826Z,21.56
2022-08-27T20:10:09.520Z,21.56
2022-08-27T20:12:44.486Z,21.50
2022-08-27T20:15:14.554Z,21.44
2022-08-27T20:17:45.542Z,21.44
2022-08-27T20:20:16.008Z,21.31
2022-08-27T20:22:48.393Z,21.25
2022-08-27T20:25:22.136Z,21.19
2022-08-27T20:27:51.587Z,21.25
2022-08-27T20:30:27.058Z,21.25
2022-08-27T20:32:56.341Z,21.19
2022-08-27T20:35:27.028Z,21.19
2022-08-27T20:38:01.208Z,21.31
2022-08-27T20:40:36.662Z,21.19
2022-08-27T20:43:08.504Z,21.19
2022-08-27T20:45:41.059Z,21.19
2022-08-27T20:48:10.610Z,21.13
2022-08-27T20:50:40.885Z,21.13
2022-08-27T20:53:09.500Z,21.00
2022-08-27T20:55:42.340Z,21.06
2022-08-27T20:58:32.596Z,20.94
2022-08-27T21:01:01.295Z,20.81
2022-08-27T21:03:28.712Z,20.63
2022-08-27T21:05:56.868Z,20.88
2022-08-27T21:08:24.577Z,20.81
2022-08-27T21:10:57.027Z,20.75
2022-08-27T21:13:26.749Z,20.75
2022-08-27T21:15:56.301Z,20.75
2022-08-27T21:18:29.886Z,20.69
2022-08-27T21:21:00.021Z,20.75
2022-08-27T21:23:29.565Z,20.81
2022-08-27T21:26:24.188Z,20.75
2022-08-27T21:28:55.869Z,20.69
2022-08-27T21:31:25.284Z,20.63
2022-08-27T21:33:54.278Z,20.63
2022-08-27T21:36:22.807Z,20.56
2022-08-27T21:38:50.845Z,20.63
2022-08-27T21:41:20.385Z,20.50
2022-08-27T21:43:48.441Z,20.38
2022-08-27T21:46:16.946Z,20.38
2022-08-27T21:48:44.566Z,20.19
2022-08-27T21:51:20.036Z,20.25
2022-08-27T21:53:52.991Z,20.19
2022-08-27T21:56:20.678Z,20.25
2022-08-27T21:58:48.524Z,20.19
2022-08-27T22:01:16.097Z,20.06
2022-08-27T22:03:50.868Z,20.00
2022-08-27T22:06:20.783Z,20.06
2022-08-27T22:08:48.958Z,20.19
2022-08-27T22:11:21.999Z,20.25
2022-08-27T22:13:52.724Z,20.06
2022-08-27T22:16:21.168Z,19.81
2022-08-27T22:18:50.889Z,19.81
2022-08-27T22:21:23.479Z,19.94
2022-08-27T22:23:51.577Z,19.94
2022-08-27T22:26:21.113Z,20.00
2022-08-27T22:28:49.541Z,19.88
2022-08-27T22:31:18.034Z,19.94
2022-08-27T22:33:45.953Z,19.75
2022-08-27T22:36:14.180Z,19.75
2022-08-27T22:38:43.032Z,19.69
2022-08-27T22:41:10.607Z,19.63
2022-08-27T22:43:38.321Z,19.75
2022-08-27T22:46:06.255Z,19.81
2022-08-27T22:48:34.911Z,19.75
2022-08-27T22:51:03.230Z,19.88
2022-08-27T22:53:31.347Z,19.81
2022-08-27T22:56:00.239Z,19.63
2022-08-27T22:58:27.910Z,19.69
2022-08-27T23:00:56.872Z,19.50
2022-08-27T23:03:26.336Z,19.63
2022-08-27T23:05:55.457Z,19.56
2022-08-27T23:08:24.615Z,19.63
2022-08-27T23:10:53.233Z,19.56
2022-08-27T23:13:21.872Z,19.50
2022-08-27T23:15:49.945Z,19.50
2022-08-27T23:18:18.189Z,19.63
2022-08-27T23:20:45.863Z,19.50
2022-08-27T23:23:13.349Z,19.38
2022-08-27T23:25:59.857Z,19.44
2022-08-27T23:28:27.580Z,19.50
2022-08-27T23:30:56.207Z,19.44
2022-08-27T23:33:24.905Z,19.56
2022-08-27T23:35:55.612Z,19.50
2022-08-27T23:38:23.748Z,19.06
2022-08-27T23:40:52.835Z,19.13
2022-08-27T23:43:21.713Z,19.31
2022-08-27T23:45:49.076Z,19.31
2022-08-27T23:48:16.930Z,19.19
2022-08-27T23:50:47.254Z,19.19
2022-08-27T23:53:15.660Z,19.13
2022-08-27T23:55:43.612Z,19.19
2022-08-27T23:58:18.669Z,19.06
